Craig, Missouri
Current Conditions -  °F | °C
As of 12:53 AM on Monday 24 Nov 2014 (Local Time) from KFNB Reporting Station
Scattered Clouds Scattered Clouds  
Wind Chill: 22°   Ceiling: Unl
Heat Index: 35°   Visibility: 10mi
Dew Point: 24°   Wind: 26mph
Humidity: 64%   Direction: 320°NW
Pressure: 29.54"   Gusts: 35mph
Location:  40.19°N, 95.37°W
Report Text: KFNB 240653Z AUTO 32023G30KT 10SM SCT038 02/M04 A2954 RMK AO2 PK WND 32033/0609 SLP005 T00171044
Loading
Personal Weather Stations






























Interactive Weather Map New forecast layout! Learn more

10-Day Weather Forecast

Advertisements
Track Severe Weather on mobile